sensor_id;sensor_type;location;lat;lon;timestamp;temperature;humidity
16578;DHT22;8401;52.528;13.340;2023-04-03T00:02:09;3.00;99.90
16578;DHT22;8401;52.528;13.340;2023-04-03T00:04:35;2.80;99.90
16578;DHT22;8401;52.528;13.340;2023-04-03T00:07:00;2.80;99.90
16578;DHT22;8401;52.528;13.340;2023-04-03T00:09:26;2.80;99.90
16578;DHT22;8401;52.528;13.340;2023-04-03T00:11:52;2.80;99.90
16578;DHT22;8401;52.528;13.340;2023-04-03T00:14:17;2.80;99.90
16578;DHT22;8401;52.528;13.340;2023-04-03T00:16:43;2.70;99.90
16578;DHT22;8401;52.528;13.340;2023-04-03T00:19:09;2.80;99.90
16578;DHT22;8401;52.528;13.340;2023-04-03T00:21:37;2.80;99.90
16578;DHT22;8401;52.528;13.340;2023-04-03T00:24:03;2.80;99.90
16578;DHT22;8401;52.528;13.340;2023-04-03T00:26:29;2.60;99.90
16578;DHT22;8401;52.528;13.340;2023-04-03T00:28:55;2.60;99.90
16578;DHT22;8401;52.528;13.340;2023-04-03T00:31:21;2.60;99.90
16578;DHT22;8401;52.528;13.340;2023-04-03T00:33:47;2.50;99.90
16578;DHT22;8401;52.528;13.340;2023-04-03T00:36:13;2.50;99.90
16578;DHT22;8401;52.528;13.340;2023-04-03T00:38:38;2.40;99.90
16578;DHT22;8401;52.528;13.340;2023-04-03T00:41:05;2.50;99.90
16578;DHT22;8401;52.528;13.340;2023-04-03T00:43:30;2.50;99.90
16578;DHT22;8401;52.528;13.340;2023-04-03T00:45:59;2.40;99.90
16578;DHT22;8401;52.528;13.340;2023-04-03T00:48:30;2.40;99.90
16578;DHT22;8401;52.528;13.340;2023-04-03T00:50:57;2.30;99.90
16578;DHT22;8401;52.528;13.340;2023-04-03T00:53:32;2.40;99.90
16578;DHT22;8401;52.528;13.340;2023-04-03T00:56:00;2.40;99.90
16578;DHT22;8401;52.528;13.340;2023-04-03T00:58:33;2.50;99.90
16578;DHT22;8401;52.528;13.340;2023-04-03T01:01:01;2.40;99.90
16578;DHT22;8401;52.528;13.340;2023-04-03T01:03:28;2.40;99.90
16578;DHT22;8401;52.528;13.340;2023-04-03T01:05:56;2.40;99.90
16578;DHT22;8401;52.528;13.340;2023-04-03T01:08:23;2.40;99.90
16578;DHT22;8401;52.528;13.340;2023-04-03T01:10:49;2.30;99.90
16578;DHT22;8401;52.528;13.340;2023-04-03T01:13:30;2.20;99.90
16578;DHT22;8401;52.528;13.340;2023-04-03T01:15:57;2.20;99.90
16578;DHT22;8401;52.528;13.340;2023-04-03T01:18:26;2.20;99.90
16578;DHT22;8401;52.528;13.340;2023-04-03T01:23:29;2.20;99.90
16578;DHT22;8401;52.528;13.340;2023-04-03T01:25:58;2.20;99.90
16578;DHT22;8401;52.528;13.340;2023-04-03T01:28:33;2.20;99.90
16578;DHT22;8401;52.528;13.340;2023-04-03T01:34:12;2.30;99.90
16578;DHT22;8401;52.528;13.340;2023-04-03T01:36:37;2.30;99.90
16578;DHT22;8401;52.528;13.340;2023-04-03T01:39:03;2.20;99.90
16578;DHT22;8401;52.528;13.340;2023-04-03T01:41:29;2.20;99.90
16578;DHT22;8401;52.528;13.340;2023-04-03T01:43:55;2.10;99.90
16578;DHT22;8401;52.528;13.340;2023-04-03T01:46:22;2.10;99.90
16578;DHT22;8401;52.528;13.340;2023-04-03T01:48:47;2.00;99.90
16578;DHT22;8401;52.528;13.340;2023-04-03T01:51:14;2.00;99.90
16578;DHT22;8401;52.528;13.340;2023-04-03T01:53:39;2.10;99.90
16578;DHT22;8401;52.528;13.340;2023-04-03T01:56:05;2.10;99.90
16578;DHT22;8401;52.528;13.340;2023-04-03T01:58:31;2.00;99.90
16578;DHT22;8401;52.528;13.340;2023-04-03T02:00:57;1.90;99.90
16578;DHT22;8401;52.528;13.340;2023-04-03T02:03:22;1.80;99.90
16578;DHT22;8401;52.528;13.340;2023-04-03T02:05:49;1.90;99.90
16578;DHT22;8401;52.528;13.340;2023-04-03T02:08:15;1.80;99.90
16578;DHT22;8401;52.528;13.340;2023-04-03T02:10:43;1.80;99.90
16578;DHT22;8401;52.528;13.340;2023-04-03T02:13:09;1.90;99.90
16578;DHT22;8401;52.528;13.340;2023-04-03T02:15:38;1.90;99.90
16578;DHT22;8401;52.528;13.340;2023-04-03T02:18:04;1.80;99.90
16578;DHT22;8401;52.528;13.340;2023-04-03T02:20:29;1.80;99.90
16578;DHT22;8401;52.528;13.340;2023-04-03T02:22:55;1.80;99.90
16578;DHT22;8401;52.528;13.340;2023-04-03T02:25:21;1.70;99.90
16578;DHT22;8401;52.528;13.340;2023-04-03T02:27:47;1.80;99.90
16578;DHT22;8401;52.528;13.340;2023-04-03T02:30:12;1.70;99.90
16578;DHT22;8401;52.528;13.340;2023-04-03T02:32:40;1.70;99.90
16578;DHT22;8401;52.528;13.340;2023-04-03T02:35:06;1.70;99.90
16578;DHT22;8401;52.528;13.340;2023-04-03T02:37:32;1.70;99.90
16578;DHT22;8401;52.528;13.340;2023-04-03T02:39:58;1.70;99.90
16578;DHT22;8401;52.528;13.340;2023-04-03T02:42:23;1.70;99.90
16578;DHT22;8401;52.528;13.340;2023-04-03T02:44:49;1.80;99.90
16578;DHT22;8401;52.528;13.340;2023-04-03T02:47:15;1.70;99.90
16578;DHT22;8401;52.528;13.340;2023-04-03T02:49:41;1.70;99.90
16578;DHT22;8401;52.528;13.340;2023-04-03T02:52:09;1.70;99.90
16578;DHT22;8401;52.528;13.340;2023-04-03T02:54:34;1.60;99.90
16578;DHT22;8401;52.528;13.340;2023-04-03T02:57:00;1.60;99.90
16578;DHT22;8401;52.528;13.340;2023-04-03T02:59:26;1.50;99.90
16578;DHT22;8401;52.528;13.340;2023-04-03T03:01:51;1.50;99.90
16578;DHT22;8401;52.528;13.340;2023-04-03T03:04:17;1.50;99.90
16578;DHT22;8401;52.528;13.340;2023-04-03T03:06:43;1.50;99.90
16578;DHT22;8401;52.528;13.340;2023-04-03T03:09:08;1.50;99.90
16578;DHT22;8401;52.528;13.340;2023-04-03T03:11:34;1.50;99.90
16578;DHT22;8401;52.528;13.340;2023-04-03T03:13:59;1.40;99.90
16578;DHT22;8401;52.528;13.340;2023-04-03T03:16:25;1.40;99.90
16578;DHT22;8401;52.528;13.340;2023-04-03T03:18:51;1.40;99.90
16578;DHT22;8401;52.528;13.340;2023-04-03T03:21:16;1.40;99.90
16578;DHT22;8401;52.528;13.340;2023-04-03T03:23:42;1.30;99.90
16578;DHT22;8401;52.528;13.340;2023-04-03T03:26:10;1.20;99.90
16578;DHT22;8401;52.528;13.340;2023-04-03T03:28:36;1.20;99.90
16578;DHT22;8401;52.528;13.340;2023-04-03T03:31:03;1.10;99.90
16578;DHT22;8401;52.528;13.340;2023-04-03T03:33:29;1.00;99.90
16578;DHT22;8401;52.528;13.340;2023-04-03T03:35:55;1.10;99.90
16578;DHT22;8401;52.528;13.340;2023-04-03T03:38:21;1.10;99.90
16578;DHT22;8401;52.528;13.340;2023-04-03T03:40:47;1.10;99.90
16578;DHT22;8401;52.528;13.340;2023-04-03T03:43:14;1.00;99.90
16578;DHT22;8401;52.528;13.340;2023-04-03T03:45:40;1.00;99.90
16578;DHT22;8401;52.528;13.340;2023-04-03T03:48:05;1.10;99.90
16578;DHT22;8401;52.528;13.340;2023-04-03T03:50:31;1.00;99.90
16578;DHT22;8401;52.528;13.340;2023-04-03T03:52:56;1.00;99.90
16578;DHT22;8401;52.528;13.340;2023-04-03T03:55:22;1.00;99.90
16578;DHT22;8401;52.528;13.340;2023-04-03T03:57:48;1.00;99.90
16578;DHT22;8401;52.528;13.340;2023-04-03T04:00:15;1.00;99.90
16578;DHT22;8401;52.528;13.340;2023-04-03T04:02:41;1.00;99.90
16578;DHT22;8401;52.528;13.340;2023-04-03T04:05:07;0.90;99.90
16578;DHT22;8401;52.528;13.340;2023-04-03T04:07:33;1.00;99.90
16578;DHT22;8401;52.528;13.340;2023-04-03T04:09:58;1.00;99.90
16578;DHT22;8401;52.528;13.340;2023-04-03T04:12:27;1.00;99.90
16578;DHT22;8401;52.528;13.340;2023-04-03T04:14:53;1.00;99.90
16578;DHT22;8401;52.528;13.340;2023-04-03T04:17:18;1.00;99.90
16578;DHT22;8401;52.528;13.340;2023-04-03T04:19:45;1.00;99.90
16578;DHT22;8401;52.528;13.340;2023-04-03T04:22:10;0.90;99.90
16578;DHT22;8401;52.528;13.340;2023-04-03T04:24:36;0.90;99.90
16578;DHT22;8401;52.528;13.340;2023-04-03T04:27:02;0.90;99.90
16578;DHT22;8401;52.528;13.340;2023-04-03T04:29:28;0.90;99.90
16578;DHT22;8401;52.528;13.340;2023-04-03T04:31:53;0.90;99.90
16578;DHT22;8401;52.528;13.340;2023-04-03T04:34:19;0.90;99.90
16578;DHT22;8401;52.528;13.340;2023-04-03T04:36:45;0.90;99.90
16578;DHT22;8401;52.528;13.340;2023-04-03T04:39:11;0.90;99.90
16578;DHT22;8401;52.528;13.340;2023-04-03T04:41:36;0.90;99.90
16578;DHT22;8401;52.528;13.340;2023-04-03T04:44:02;0.90;99.90
16578;DHT22;8401;52.528;13.340;2023-04-03T04:46:28;0.90;99.90
16578;DHT22;8401;52.528;13.340;2023-04-03T04:48:53;0.90;99.90
16578;DHT22;8401;52.528;13.340;2023-04-03T04:51:19;0.80;99.90
16578;DHT22;8401;52.528;13.340;2023-04-03T04:53:45;0.90;99.90
16578;DHT22;8401;52.528;13.340;2023-04-03T04:56:11;0.90;99.90
16578;DHT22;8401;52.528;13.340;2023-04-03T04:58:37;0.90;99.90
16578;DHT22;8401;52.528;13.340;2023-04-03T05:01:08;1.00;99.90
16578;DHT22;8401;52.528;13.340;2023-04-03T05:03:34;0.90;99.90
16578;DHT22;8401;52.528;13.340;2023-04-03T05:06:00;0.90;99.90
16578;DHT22;8401;52.528;13.340;2023-04-03T05:08:26;0.90;99.90
16578;DHT22;8401;52.528;13.340;2023-04-03T05:10:52;1.00;99.90
16578;DHT22;8401;52.528;13.340;2023-04-03T05:13:19;1.00;99.90
16578;DHT22;8401;52.528;13.340;2023-04-03T05:15:45;1.00;99.90
16578;DHT22;8401;52.528;13.340;2023-04-03T05:18:11;1.00;99.90
16578;DHT22;8401;52.528;13.340;2023-04-03T05:20:37;0.90;99.90
16578;DHT22;8401;52.528;13.340;2023-04-03T05:23:03;1.00;99.90
16578;DHT22;8401;52.528;13.340;2023-04-03T05:25:29;1.00;99.90
16578;DHT22;8401;52.528;13.340;2023-04-03T05:27:55;1.10;99.90
16578;DHT22;8401;52.528;13.340;2023-04-03T05:30:21;1.00;99.90
16578;DHT22;8401;52.528;13.340;2023-04-03T05:32:46;1.00;99.90
16578;DHT22;8401;52.528;13.340;2023-04-03T05:35:12;1.10;99.90
16578;DHT22;8401;52.528;13.340;2023-04-03T05:37:38;1.10;99.90
16578;DHT22;8401;52.528;13.340;2023-04-03T05:40:05;1.10;99.90
16578;DHT22;8401;52.528;13.340;2023-04-03T05:42:31;1.10;99.90
16578;DHT22;8401;52.528;13.340;2023-04-03T05:44:56;1.20;99.90
16578;DHT22;8401;52.528;13.340;2023-04-03T05:47:23;1.20;99.90
16578;DHT22;8401;52.528;13.340;2023-04-03T05:49:48;1.20;99.90
16578;DHT22;8401;52.528;13.340;2023-04-03T05:52:28;1.30;99.90
16578;DHT22;8401;52.528;13.340;2023-04-03T05:54:54;1.50;99.90
16578;DHT22;8401;52.528;13.340;2023-04-03T05:57:20;1.50;99.90
16578;DHT22;8401;52.528;13.340;2023-04-03T05:59:46;1.60;99.90
16578;DHT22;8401;52.528;13.340;2023-04-03T06:02:14;1.80;99.90
16578;DHT22;8401;52.528;13.340;2023-04-03T06:04:40;1.70;99.90
16578;DHT22;8401;52.528;13.340;2023-04-03T06:07:06;1.70;99.90
16578;DHT22;8401;52.528;13.340;2023-04-03T06:09:33;1.70;99.90
16578;DHT22;8401;52.528;13.340;2023-04-03T06:11:59;1.80;99.90
16578;DHT22;8401;52.528;13.340;2023-04-03T06:14:26;1.80;99.90
16578;DHT22;8401;52.528;13.340;2023-04-03T06:16:52;1.90;99.90
16578;DHT22;8401;52.528;13.340;2023-04-03T06:19:18;1.90;99.90
16578;DHT22;8401;52.528;13.340;2023-04-03T06:21:43;1.90;99.90
16578;DHT22;8401;52.528;13.340;2023-04-03T06:24:11;2.00;99.90
16578;DHT22;8401;52.528;13.340;2023-04-03T06:26:37;2.00;99.90
16578;DHT22;8401;52.528;13.340;2023-04-03T06:29:03;2.30;99.90
16578;DHT22;8401;52.528;13.340;2023-04-03T06:31:29;2.20;99.90
16578;DHT22;8401;52.528;13.340;2023-04-03T06:33:55;2.30;99.90
16578;DHT22;8401;52.528;13.340;2023-04-03T06:36:21;2.40;99.90
16578;DHT22;8401;52.528;13.340;2023-04-03T06:38:48;2.40;99.90
16578;DHT22;8401;52.528;13.340;2023-04-03T06:41:14;2.50;99.90
16578;DHT22;8401;52.528;13.340;2023-04-03T06:43:40;2.50;99.90
16578;DHT22;8401;52.528;13.340;2023-04-03T06:46:05;2.60;99.90
16578;DHT22;8401;52.528;13.340;2023-04-03T06:48:31;2.80;99.90
16578;DHT22;8401;52.528;13.340;2023-04-03T06:50:57;2.70;99.90
16578;DHT22;8401;52.528;13.340;2023-04-03T06:53:23;2.90;99.90
16578;DHT22;8401;52.528;13.340;2023-04-03T06:55:49;2.90;99.90
16578;DHT22;8401;52.528;13.340;2023-04-03T06:58:15;3.00;99.90
16578;DHT22;8401;52.528;13.340;2023-04-03T07:00:42;3.30;99.90
16578;DHT22;8401;52.528;13.340;2023-04-03T07:03:08;3.20;99.90
16578;DHT22;8401;52.528;13.340;2023-04-03T07:05:33;3.30;99.90
16578;DHT22;8401;52.528;13.340;2023-04-03T07:07:59;3.50;99.90
16578;DHT22;8401;52.528;13.340;2023-04-03T07:10:25;3.90;99.90
16578;DHT22;8401;52.528;13.340;2023-04-03T07:12:51;4.20;99.90
16578;DHT22;8401;52.528;13.340;2023-04-03T07:15:17;4.00;99.90
16578;DHT22;8401;52.528;13.340;2023-04-03T07:17:42;4.10;99.90
16578;DHT22;8401;52.528;13.340;2023-04-03T07:20:08;4.30;99.90
16578;DHT22;8401;52.528;13.340;2023-04-03T07:22:34;4.60;99.90
16578;DHT22;8401;52.528;13.340;2023-04-03T07:25:00;4.90;99.90
16578;DHT22;8401;52.528;13.340;2023-04-03T07:27:26;5.20;99.90
16578;DHT22;8401;52.528;13.340;2023-04-03T07:29:52;5.60;99.90
16578;DHT22;8401;52.528;13.340;2023-04-03T07:32:17;5.70;99.90
16578;DHT22;8401;52.528;13.340;2023-04-03T07:34:44;5.50;99.90
16578;DHT22;8401;52.528;13.340;2023-04-03T07:37:10;5.80;99.90
16578;DHT22;8401;52.528;13.340;2023-04-03T07:39:36;6.20;99.90
16578;DHT22;8401;52.528;13.340;2023-04-03T07:42:02;6.10;99.90
16578;DHT22;8401;52.528;13.340;2023-04-03T07:44:28;6.10;99.90
16578;DHT22;8401;52.528;13.340;2023-04-03T07:46:54;6.20;99.90
16578;DHT22;8401;52.528;13.340;2023-04-03T07:49:21;6.50;99.90
16578;DHT22;8401;52.528;13.340;2023-04-03T07:51:49;6.20;99.90
16578;DHT22;8401;52.528;13.340;2023-04-03T07:54:15;6.10;99.90
16578;DHT22;8401;52.528;13.340;2023-04-03T07:56:41;6.40;99.90
16578;DHT22;8401;52.528;13.340;2023-04-03T07:59:08;6.10;99.90
16578;DHT22;8401;52.528;13.340;2023-04-03T08:01:34;6.40;99.90
16578;DHT22;8401;52.528;13.340;2023-04-03T08:04:00;6.20;99.90
16578;DHT22;8401;52.528;13.340;2023-04-03T08:06:27;6.20;99.90
16578;DHT22;8401;52.528;13.340;2023-04-03T08:08:54;6.00;99.90
16578;DHT22;8401;52.528;13.340;2023-04-03T08:11:20;5.90;99.90
16578;DHT22;8401;52.528;13.340;2023-04-03T08:13:46;5.80;99.90
16578;DHT22;8401;52.528;13.340;2023-04-03T08:16:16;6.20;99.90
16578;DHT22;8401;52.528;13.340;2023-04-03T08:18:42;6.90;99.90
16578;DHT22;8401;52.528;13.340;2023-04-03T08:21:11;7.30;99.90
16578;DHT22;8401;52.528;13.340;2023-04-03T08:23:38;7.80;99.90
16578;DHT22;8401;52.528;13.340;2023-04-03T08:26:12;8.60;99.90
16578;DHT22;8401;52.528;13.340;2023-04-03T08:28:39;8.90;99.90
16578;DHT22;8401;52.528;13.340;2023-04-03T08:31:06;8.40;99.90
16578;DHT22;8401;52.528;13.340;2023-04-03T08:33:33;8.20;99.90
16578;DHT22;8401;52.528;13.340;2023-04-03T08:36:02;8.00;99.90
16578;DHT22;8401;52.528;13.340;2023-04-03T08:38:28;7.20;99.90
16578;DHT22;8401;52.528;13.340;2023-04-03T08:41:29;7.00;99.90
16578;DHT22;8401;52.528;13.340;2023-04-03T08:44:25;7.10;99.90
16578;DHT22;8401;52.528;13.340;2023-04-03T08:51:58;6.70;99.90
16578;DHT22;8401;52.528;13.340;2023-04-03T08:54:33;7.10;99.90
16578;DHT22;8401;52.528;13.340;2023-04-03T08:57:03;8.20;99.90
16578;DHT22;8401;52.528;13.340;2023-04-03T08:59:34;8.10;99.90
16578;DHT22;8401;52.528;13.340;2023-04-03T09:02:04;7.80;99.90
16578;DHT22;8401;52.528;13.340;2023-04-03T09:04:37;8.10;99.90
16578;DHT22;8401;52.528;13.340;2023-04-03T09:07:16;8.80;99.90
16578;DHT22;8401;52.528;13.340;2023-04-03T09:09:46;8.80;99.90
16578;DHT22;8401;52.528;13.340;2023-04-03T09:12:24;8.20;99.90
16578;DHT22;8401;52.528;13.340;2023-04-03T09:22:50;14.00;99.90
16578;DHT22;8401;52.528;13.340;2023-04-03T09:25:31;14.80;99.90
16578;DHT22;8401;52.528;13.340;2023-04-03T09:28:00;15.60;99.90
16578;DHT22;8401;52.528;13.340;2023-04-03T09:30:27;15.10;99.90
16578;DHT22;8401;52.528;13.340;2023-04-03T09:32:55;15.80;99.90
16578;DHT22;8401;52.528;13.340;2023-04-03T09:35:33;14.50;99.90
16578;DHT22;8401;52.528;13.340;2023-04-03T09:40:38;11.00;99.90
16578;DHT22;8401;52.528;13.340;2023-04-03T09:43:31;10.10;99.90
16578;DHT22;8401;52.528;13.340;2023-04-03T09:46:18;10.20;99.90
16578;DHT22;8401;52.528;13.340;2023-04-03T09:48:58;10.10;99.90
16578;DHT22;8401;52.528;13.340;2023-04-03T09:51:28;11.60;99.90
16578;DHT22;8401;52.528;13.340;2023-04-03T09:53:55;13.30;99.90
16578;DHT22;8401;52.528;13.340;2023-04-03T09:56:29;14.20;99.90
16578;DHT22;8401;52.528;13.340;2023-04-03T10:01:34;13.90;99.90
16578;DHT22;8401;52.528;13.340;2023-04-03T10:04:15;13.70;99.90
16578;DHT22;8401;52.528;13.340;2023-04-03T10:09:24;12.40;99.90
16578;DHT22;8401;52.528;13.340;2023-04-03T10:14:34;10.30;99.90
16578;DHT22;8401;52.528;13.340;2023-04-03T10:25:40;11.50;99.90
16578;DHT22;8401;52.528;13.340;2023-04-03T10:33:52;10.10;99.90
16578;DHT22;8401;52.528;13.340;2023-04-03T10:39:27;10.60;99.90
16578;DHT22;8401;52.528;13.340;2023-04-03T10:58:04;10.90;99.00
16578;DHT22;8401;52.528;13.340;2023-04-03T11:00:40;10.40;99.50
16578;DHT22;8401;52.528;13.340;2023-04-03T11:03:30;9.90;99.90
16578;DHT22;8401;52.528;13.340;2023-04-03T11:06:02;9.80;99.90
16578;DHT22;8401;52.528;13.340;2023-04-03T11:11:16;10.50;99.90
16578;DHT22;8401;52.528;13.340;2023-04-03T11:16:23;9.20;99.90
16578;DHT22;8401;52.528;13.340;2023-04-03T11:21:46;9.20;99.90
16578;DHT22;8401;52.528;13.340;2023-04-03T11:24:25;9.40;99.90
16578;DHT22;8401;52.528;13.340;2023-04-03T11:26:54;9.20;99.90
16578;DHT22;8401;52.528;13.340;2023-04-03T11:29:25;8.30;99.90
16578;DHT22;8401;52.528;13.340;2023-04-03T11:37:13;7.80;99.90
16578;DHT22;8401;52.528;13.340;2023-04-03T11:39:54;8.00;99.90
16578;DHT22;8401;52.528;13.340;2023-04-03T11:42:39;7.60;99.90
16578;DHT22;8401;52.528;13.340;2023-04-03T11:47:53;7.60;99.90
16578;DHT22;8401;52.528;13.340;2023-04-03T11:53:25;8.40;99.90
16578;DHT22;8401;52.528;13.340;2023-04-03T11:58:17;8.10;99.90
16578;DHT22;8401;52.528;13.340;2023-04-03T12:27:02;8.10;99.90
16578;DHT22;8401;52.528;13.340;2023-04-03T12:43:35;7.20;99.90
16578;DHT22;8401;52.528;13.340;2023-04-03T12:48:49;7.70;99.90
16578;DHT22;8401;52.528;13.340;2023-04-03T12:51:28;7.90;99.90
16578;DHT22;8401;52.528;13.340;2023-04-03T12:56:42;8.30;99.90
16578;DHT22;8401;52.528;13.340;2023-04-03T12:59:19;8.50;99.90
16578;DHT22;8401;52.528;13.340;2023-04-03T13:01:57;8.60;99.90
16578;DHT22;8401;52.528;13.340;2023-04-03T13:04:23;8.30;99.90
16578;DHT22;8401;52.528;13.340;2023-04-03T13:06:49;7.90;99.90
16578;DHT22;8401;52.528;13.340;2023-04-03T13:09:25;8.00;99.90
16578;DHT22;8401;52.528;13.340;2023-04-03T13:14:25;7.80;99.90
16578;DHT22;8401;52.528;13.340;2023-04-03T13:19:38;8.00;99.90
16578;DHT22;8401;52.528;13.340;2023-04-03T13:25:03;7.80;99.90
16578;DHT22;8401;52.528;13.340;2023-04-03T13:27:31;7.50;99.90
16578;DHT22;8401;52.528;13.340;2023-04-03T13:30:00;7.50;99.90
16578;DHT22;8401;52.528;13.340;2023-04-03T13:32:28;7.20;99.90
16578;DHT22;8401;52.528;13.340;2023-04-03T13:34:54;7.40;99.90
16578;DHT22;8401;52.528;13.340;2023-04-03T13:37:32;7.40;99.90
16578;DHT22;8401;52.528;13.340;2023-04-03T13:40:19;7.10;99.90
16578;DHT22;8401;52.528;13.340;2023-04-03T13:42:44;7.20;99.90
16578;DHT22;8401;52.528;13.340;2023-04-03T13:45:25;7.50;99.90
16578;DHT22;8401;52.528;13.340;2023-04-03T13:48:08;7.40;99.90
16578;DHT22;8401;52.528;13.340;2023-04-03T13:51:32;7.30;99.90
16578;DHT22;8401;52.528;13.340;2023-04-03T13:53:48;7.40;99.90
16578;DHT22;8401;52.528;13.340;2023-04-03T13:56:26;7.20;99.90
16578;DHT22;8401;52.528;13.340;2023-04-03T14:04:15;7.30;99.90
16578;DHT22;8401;52.528;13.340;2023-04-03T14:06:41;7.30;99.90
16578;DHT22;8401;52.528;13.340;2023-04-03T14:09:06;7.40;99.90
16578;DHT22;8401;52.528;13.340;2023-04-03T14:11:34;7.50;99.90
16578;DHT22;8401;52.528;13.340;2023-04-03T14:14:05;7.50;99.90
16578;DHT22;8401;52.528;13.340;2023-04-03T14:16:33;7.40;99.90
16578;DHT22;8401;52.528;13.340;2023-04-03T14:19:03;7.40;99.90
16578;DHT22;8401;52.528;13.340;2023-04-03T14:21:28;7.50;99.90
16578;DHT22;8401;52.528;13.340;2023-04-03T14:23:54;7.30;99.90
16578;DHT22;8401;52.528;13.340;2023-04-03T14:26:23;7.20;99.90
16578;DHT22;8401;52.528;13.340;2023-04-03T14:28:51;7.00;99.90
16578;DHT22;8401;52.528;13.340;2023-04-03T14:31:18;7.10;99.90
16578;DHT22;8401;52.528;13.340;2023-04-03T14:33:45;7.10;99.90
16578;DHT22;8401;52.528;13.340;2023-04-03T14:36:22;7.10;99.90
16578;DHT22;8401;52.528;13.340;2023-04-03T14:38:49;6.80;99.90
16578;DHT22;8401;52.528;13.340;2023-04-03T14:41:18;6.90;99.90
16578;DHT22;8401;52.528;13.340;2023-04-03T14:43:45;7.50;99.90
16578;DHT22;8401;52.528;13.340;2023-04-03T14:46:16;7.70;99.90
16578;DHT22;8401;52.528;13.340;2023-04-03T14:48:43;7.80;99.90
16578;DHT22;8401;52.528;13.340;2023-04-03T14:51:13;7.50;99.90
16578;DHT22;8401;52.528;13.340;2023-04-03T14:53:40;7.80;99.90
16578;DHT22;8401;52.528;13.340;2023-04-03T14:56:27;8.00;99.90
16578;DHT22;8401;52.528;13.340;2023-04-03T14:58:59;7.90;99.90
16578;DHT22;8401;52.528;13.340;2023-04-03T15:01:26;7.50;99.90
16578;DHT22;8401;52.528;13.340;2023-04-03T15:03:52;7.40;99.90
16578;DHT22;8401;52.528;13.340;2023-04-03T15:06:18;7.10;99.90
16578;DHT22;8401;52.528;13.340;2023-04-03T15:08:46;7.00;99.90
16578;DHT22;8401;52.528;13.340;2023-04-03T15:11:13;7.00;99.90
16578;DHT22;8401;52.528;13.340;2023-04-03T15:13:39;7.00;99.90
16578;DHT22;8401;52.528;13.340;2023-04-03T15:16:09;6.90;99.90
16578;DHT22;8401;52.528;13.340;2023-04-03T15:18:38;7.10;99.90
16578;DHT22;8401;52.528;13.340;2023-04-03T15:21:04;7.00;99.90
16578;DHT22;8401;52.528;13.340;2023-04-03T15:23:30;6.90;99.90
16578;DHT22;8401;52.528;13.340;2023-04-03T15:25:56;6.90;99.90
16578;DHT22;8401;52.528;13.340;2023-04-03T15:28:30;6.70;99.90
16578;DHT22;8401;52.528;13.340;2023-04-03T15:30:57;6.60;99.90
16578;DHT22;8401;52.528;13.340;2023-04-03T15:33:23;6.50;99.90
16578;DHT22;8401;52.528;13.340;2023-04-03T15:35:49;6.60;99.90
16578;DHT22;8401;52.528;13.340;2023-04-03T15:38:15;6.30;99.90
16578;DHT22;8401;52.528;13.340;2023-04-03T15:40:41;6.40;99.90
16578;DHT22;8401;52.528;13.340;2023-04-03T15:43:08;6.30;99.90
16578;DHT22;8401;52.528;13.340;2023-04-03T15:45:35;6.30;99.90
16578;DHT22;8401;52.528;13.340;2023-04-03T15:48:02;6.10;99.90
16578;DHT22;8401;52.528;13.340;2023-04-03T15:50:28;6.20;99.90
16578;DHT22;8401;52.528;13.340;2023-04-03T15:52:54;6.30;99.90
16578;DHT22;8401;52.528;13.340;2023-04-03T15:55:22;6.30;99.90
16578;DHT22;8401;52.528;13.340;2023-04-03T15:57:48;6.40;99.90
16578;DHT22;8401;52.528;13.340;2023-04-03T16:00:14;6.40;99.90
16578;DHT22;8401;52.528;13.340;2023-04-03T16:02:41;6.20;99.90
16578;DHT22;8401;52.528;13.340;2023-04-03T16:05:07;6.20;99.90
16578;DHT22;8401;52.528;13.340;2023-04-03T16:07:33;6.10;99.90
16578;DHT22;8401;52.528;13.340;2023-04-03T16:09:58;6.10;99.90
16578;DHT22;8401;52.528;13.340;2023-04-03T16:12:24;6.00;99.90
16578;DHT22;8401;52.528;13.340;2023-04-03T16:14:50;5.80;99.90
16578;DHT22;8401;52.528;13.340;2023-04-03T16:17:16;5.70;99.90
16578;DHT22;8401;52.528;13.340;2023-04-03T16:19:42;5.50;99.90
16578;DHT22;8401;52.528;13.340;2023-04-03T16:22:08;5.60;99.90
16578;DHT22;8401;52.528;13.340;2023-04-03T16:24:34;5.60;99.90
16578;DHT22;8401;52.528;13.340;2023-04-03T16:27:00;6.10;99.90
16578;DHT22;8401;52.528;13.340;2023-04-03T16:29:26;6.20;99.90
16578;DHT22;8401;52.528;13.340;2023-04-03T16:31:52;6.50;99.90
16578;DHT22;8401;52.528;13.340;2023-04-03T16:34:18;6.40;99.90
16578;DHT22;8401;52.528;13.340;2023-04-03T16:36:43;6.70;99.90
16578;DHT22;8401;52.528;13.340;2023-04-03T16:39:09;6.60;99.90
16578;DHT22;8401;52.528;13.340;2023-04-03T16:41:37;6.20;99.90
16578;DHT22;8401;52.528;13.340;2023-04-03T16:44:03;6.10;99.90
16578;DHT22;8401;52.528;13.340;2023-04-03T16:46:28;6.20;99.90
16578;DHT22;8401;52.528;13.340;2023-04-03T16:48:54;6.10;99.90
16578;DHT22;8401;52.528;13.340;2023-04-03T16:51:20;6.00;99.90
16578;DHT22;8401;52.528;13.340;2023-04-03T16:53:45;6.00;99.90
16578;DHT22;8401;52.528;13.340;2023-04-03T16:56:11;6.00;99.90
16578;DHT22;8401;52.528;13.340;2023-04-03T16:58:36;5.80;99.90
16578;DHT22;8401;52.528;13.340;2023-04-03T17:01:13;5.90;99.90
16578;DHT22;8401;52.528;13.340;2023-04-03T17:03:39;6.00;99.90
16578;DHT22;8401;52.528;13.340;2023-04-03T17:06:05;6.00;99.90
16578;DHT22;8401;52.528;13.340;2023-04-03T17:08:31;5.80;99.90
16578;DHT22;8401;52.528;13.340;2023-04-03T17:10:57;5.80;99.90
16578;DHT22;8401;52.528;13.340;2023-04-03T17:13:22;6.00;99.90
16578;DHT22;8401;52.528;13.340;2023-04-03T17:15:48;5.80;99.90
16578;DHT22;8401;52.528;13.340;2023-04-03T17:18:14;5.70;99.90
16578;DHT22;8401;52.528;13.340;2023-04-03T17:20:40;5.80;99.90
16578;DHT22;8401;52.528;13.340;2023-04-03T17:23:06;5.80;99.90
16578;DHT22;8401;52.528;13.340;2023-04-03T17:25:31;5.50;99.90
16578;DHT22;8401;52.528;13.340;2023-04-03T17:27:57;5.40;99.90
16578;DHT22;8401;52.528;13.340;2023-04-03T17:30:23;5.50;99.90
16578;DHT22;8401;52.528;13.340;2023-04-03T17:32:48;5.60;99.90
16578;DHT22;8401;52.528;13.340;2023-04-03T17:35:14;5.70;99.90
16578;DHT22;8401;52.528;13.340;2023-04-03T17:37:40;5.60;99.90
16578;DHT22;8401;52.528;13.340;2023-04-03T17:40:06;5.50;99.90
16578;DHT22;8401;52.528;13.340;2023-04-03T17:42:32;5.50;99.90
16578;DHT22;8401;52.528;13.340;2023-04-03T17:44:58;5.40;99.90
16578;DHT22;8401;52.528;13.340;2023-04-03T17:47:25;5.40;99.90
16578;DHT22;8401;52.528;13.340;2023-04-03T17:49:51;5.30;99.90
16578;DHT22;8401;52.528;13.340;2023-04-03T17:52:16;5.30;99.90
16578;DHT22;8401;52.528;13.340;2023-04-03T17:54:42;5.30;99.90
16578;DHT22;8401;52.528;13.340;2023-04-03T17:57:08;5.30;99.90
16578;DHT22;8401;52.528;13.340;2023-04-03T17:59:33;5.10;99.90
16578;DHT22;8401;52.528;13.340;2023-04-03T18:01:59;5.20;99.90
16578;DHT22;8401;52.528;13.340;2023-04-03T18:04:27;5.30;99.90
16578;DHT22;8401;52.528;13.340;2023-04-03T18:06:55;5.40;99.90
16578;DHT22;8401;52.528;13.340;2023-04-03T18:09:30;5.30;99.90
16578;DHT22;8401;52.528;13.340;2023-04-03T18:12:00;5.40;99.90
16578;DHT22;8401;52.528;13.340;2023-04-03T18:14:27;5.40;99.90